Creek Data

    Home     View Charts     View Raw Data     Messages

ID Distance Battery Voltage Battery Current Internal Temp Internal Humidity External Temp Solar Input rssi snr Time Stamp Record
36319 15.3 4.13 0 71 41 64 5.1 -80 7 03/29/2025 05:15 PM 18170
36318 15.2 4.03 0 72 40 64 5.1 -79 7 03/29/2025 05:00 PM 18169
36317 0.0 4.03 0 73 40 63 5.1 -80 8 03/29/2025 04:45 PM 18168
36316 0.0 4.03 0 73 39 63 5.1 -79 8 03/29/2025 04:30 PM 18167
36315 15.2 4.03 0 71 41 64 5.1 -80 7 03/29/2025 04:15 PM 18166
36314 15.2 4.03 0 70 42 62 5.1 -80 8 03/29/2025 04:00 PM 18165
36313 0.0 4.03 0 71 41 62 5.1 -81 9 03/29/2025 03:45 PM 18164
36312 15.3 4.03 5 76 38 63 5.1 -79 7 03/29/2025 03:30 PM 18163
36311 15.2 4.03 0 77 37 67 5.1 -82 7 03/29/2025 03:15 PM 18162
36310 15.3 4.03 5 75 37 63 5.1 -80 7 03/29/2025 03:00 PM 18161
36309 15.3 4.03 0 75 37 63 5.1 -81 8 03/29/2025 02:45 PM 18160
36308 0.0 4.10 5 74 37 61 5.1 -80 8 03/29/2025 02:30 PM 18159
36307 15.3 4.03 0 74 37 63 5.1 -80 6 03/29/2025 02:15 PM 18158
36306 0.0 4.03 5 69 39 60 5.1 -80 8 03/29/2025 02:00 PM 18157
36305 15.3 4.03 0 72 37 60 5.1 -80 7 03/29/2025 01:45 PM 18156
36304 15.4 4.14 5 73 36 63 5.1 -81 7 03/29/2025 01:30 PM 18155
36303 15.3 4.03 0 71 37 62 5.1 -80 8 03/29/2025 01:15 PM 18154
36302 0.0 4.03 0 70 37 60 5.1 -80 9 03/29/2025 01:00 PM 18153
36301 15.3 4.03 0 68 37 60 5.1 -81 8 03/29/2025 12:45 PM 18152
36300 15.4 4.03 5 67 37 59 5.1 -80 8 03/29/2025 12:30 PM 18151
36299 0.0 4.15 5 66 37 59 5.1 -81 8 03/29/2025 12:15 PM 18150
36298 15.4 4.03 0 65 37 59 5.1 -80 7 03/29/2025 12:00 PM 18149
36297 15.4 4.03 5 66 37 59 5.1 -80 8 03/29/2025 11:45 AM 18148
36296 15.4 4.14 0 64 37 59 5.1 -81 8 03/29/2025 11:30 AM 18147
36295 15.5 4.03 5 63 36 60 5.1 -82 8 03/29/2025 11:15 AM 18146